Time;durP1;ratioP1;P1;durP2;ratioP2;P2;SDS_P1;SDS_P2;PMS_P1;PMS_P2;Temp;Humidity;BMP_temperature;BMP_pressure;BME280_temperature;BME280_humidity;BME280_pressure;Samples;Min_cycle;Max_cycle;Signal;HPM_P1;HPM_P2
2021/01/14 00:00:08;;;;;;;4.47;2.17;;;0.30;99.90;;;-1.66;100.00;99214.88;5005291;27;100406;-63
2021/01/14 00:02:34;;;;;;;4.00;2.40;;;0.10;99.90;;;-1.71;100.00;99210.88;5005079;27;100071;-64
2021/01/14 00:05:09;;;;;;;4.20;2.53;;;0.20;99.90;;;-1.72;100.00;99217.06;5022781;27;101849;-63
2021/01/14 00:07:36;;;;;;;3.80;2.40;;;0.20;99.90;;;-1.72;100.00;99217.06;5025844;27;99963;-64
2021/01/14 00:10:05;;;;;;;3.07;2.87;;;0.20;99.90;;;-1.73;100.00;99220.66;5025109;27;100327;-63
2021/01/14 00:12:32;;;;;;;4.27;2.80;;;0.10;99.90;;;-1.72;100.00;99214.44;5024909;27;101451;-65
2021/01/14 00:14:59;;;;;;;4.20;3.03;;;0.10;99.90;;;-1.72;100.00;99219.69;5025006;27;100911;-64
2021/01/14 00:17:26;;;;;;;4.60;3.33;;;0.10;99.90;;;-1.75;100.00;99214.69;5025134;27;100186;-62
2021/01/14 00:19:52;;;;;;;4.57;2.87;;;0.20;99.90;;;-1.73;100.00;99215.41;5025586;27;100429;-62
2021/01/14 00:22:19;;;;;;;4.63;3.03;;;0.20;99.90;;;-1.72;100.00;99215.28;5024894;27;101834;-62
2021/01/14 00:24:45;;;;;;;3.93;2.90;;;0.10;99.90;;;-1.74;100.00;99218.97;5024960;27;100484;-62
2021/01/14 00:27:12;;;;;;;3.27;2.70;;;0.10;99.90;;;-1.68;100.00;99218.53;5005679;27;100006;-65
2021/01/14 00:29:39;;;;;;;4.53;2.67;;;0.30;99.90;;;-1.70;100.00;99215.19;5025366;27;100187;-62
2021/01/14 00:32:06;;;;;;;5.07;3.30;;;0.20;99.90;;;-1.67;100.00;99221.06;5024735;27;100395;-64
2021/01/14 00:34:33;;;;;;;5.43;2.50;;;0.20;99.90;;;-1.66;100.00;99217.50;5024887;27;100976;-64
2021/01/14 00:39:44;;;;;;;5.07;2.60;;;0.30;99.90;;;-1.60;100.00;99203.09;5028027;27;100147;-65
2021/01/14 00:42:17;;;;;;;3.20;2.47;;;0.30;99.90;;;-1.62;100.00;99205.84;5027013;27;101433;-63
2021/01/14 00:44:43;;;;;;;3.37;2.13;;;0.10;99.90;;;-1.61;100.00;99202.28;5028068;27;100813;-64
2021/01/14 00:47:10;;;;;;;3.93;2.30;;;0.60;99.90;;;-1.60;100.00;99200.47;5028279;27;100320;-64
2021/01/14 00:49:37;;;;;;;1.90;1.53;;;0.20;99.90;;;-1.62;100.00;99202.38;5009520;27;100204;-64
2021/01/14 00:52:04;;;;;;;4.30;2.60;;;0.20;99.90;;;-1.60;100.00;99200.47;5027280;27;101428;-62
2021/01/14 00:54:30;;;;;;;4.93;1.90;;;0.30;99.90;;;-1.62;100.00;99207.63;5027998;27;101176;-62
2021/01/14 00:56:57;;;;;;;3.87;1.70;;;0.30;99.90;;;-1.60;100.00;99213.59;5028207;27;100218;-62
2021/01/14 00:59:23;;;;;;;2.90;1.97;;;0.30;99.90;;;-1.58;100.00;99217.78;5028766;27;100609;-65
2021/01/14 01:01:49;;;;;;;2.50;1.50;;;0.20;99.90;;;-1.59;100.00;99210.84;5027678;27;100521;-63
2021/01/14 01:04:17;;;;;;;2.63;2.00;;;0.40;99.90;;;-1.59;100.00;99217.88;5028435;27;100684;-63
2021/01/14 01:06:43;;;;;;;3.77;1.80;;;0.20;99.90;;;-1.62;100.00;99218.97;5029102;27;100364;-63
2021/01/14 01:09:11;;;;;;;2.50;1.83;;;0.20;99.90;;;-1.64;100.00;99220.84;5029006;27;100102;-63
2021/01/14 01:11:39;;;;;;;4.67;1.80;;;0.20;99.90;;;-1.67;100.00;99226.31;5027097;27;101109;-63
2021/01/14 01:14:06;;;;;;;3.33;1.73;;;0.20;99.90;;;-1.70;100.00;99226.50;5027794;27;100857;-63
2021/01/14 01:16:33;;;;;;;3.90;2.17;;;0.10;99.90;;;-1.73;100.00;99233.78;5008942;27;100370;-63
2021/01/14 01:19:00;;;;;;;4.97;1.70;;;0.20;99.90;;;-1.74;100.00;99234.72;5027842;27;100285;-63
2021/01/14 01:21:27;;;;;;;3.07;1.40;;;0.20;99.90;;;-1.76;100.00;99226.94;5027716;27;101029;-64
2021/01/14 01:23:54;;;;;;;4.07;2.30;;;0.20;99.90;;;-1.76;100.00;99233.97;5027118;27;101715;-63
2021/01/14 01:26:21;;;;;;;2.27;1.60;;;0.10;99.90;;;-1.76;100.00;99229.56;5027777;27;100159;-64
2021/01/14 01:28:48;;;;;;;2.30;1.67;;;0.20;99.90;;;-1.73;100.00;99228.53;5028034;27;99960;-62
2021/01/14 01:31:15;;;;;;;6.40;1.77;;;0.10;99.90;;;-1.77;100.00;99227.06;5027259;27;101362;-63
2021/01/14 01:33:43;;;;;;;1.47;1.30;;;0.20;99.90;;;-1.76;100.00;99223.50;5028592;27;101131;-63
2021/01/14 01:36:14;;;;;;;4.43;1.90;;;0.10;99.90;;;-1.75;100.00;99233.88;5027744;27;100261;-63
2021/01/14 01:38:41;;;;;;;2.20;1.57;;;0.10;99.90;;;-1.73;100.00;99229.34;5027850;27;100300;-63
2021/01/14 01:41:08;;;;;;;5.50;2.13;;;0.10;99.90;;;-1.72;100.00;99228.41;5026873;27;100847;-65
2021/01/14 01:43:34;;;;;;;6.33;1.90;;;0.20;99.90;;;-1.68;100.00;99221.16;5027956;27;99989;-62
2021/01/14 01:46:02;;;;;;;3.33;2.10;;;0.10;99.90;;;-1.63;100.00;99222.53;5027517;27;100172;-63
2021/01/14 01:48:30;;;;;;;2.63;1.60;;;0.90;99.90;;;-1.62;100.00;99220.75;5027793;27;99968;-62
2021/01/14 01:50:59;;;;;;;2.03;1.70;;;0.10;99.90;;;-1.62;100.00;99221.59;5027269;27;100945;-63
2021/01/14 01:53:27;;;;;;;1.23;1.13;;;0.30;99.90;;;-1.46;100.00;99203.78;5027509;27;101013;-63
2021/01/14 01:55:55;;;;;;;1.50;1.40;;;0.10;99.90;;;-1.47;100.00;99212.63;5027652;27;100206;-62
2021/01/14 01:58:22;;;;;;;4.13;1.40;;;0.20;99.90;;;-1.41;100.00;99200.03;5027018;27;100066;-62
2021/01/14 02:00:50;;;;;;;1.47;1.27;;;0.30;99.90;;;-1.38;100.00;99205.06;5007074;27;104070;-63
2021/01/14 02:03:16;;;;;;;3.60;1.60;;;0.20;99.90;;;-1.41;100.00;99206.09;5026885;27;101320;-63
2021/01/14 02:05:55;;;;;;;4.33;1.70;;;0.50;99.90;;;-1.36;100.00;99193.47;5026402;27;100546;-63
2021/01/14 02:08:31;;;;;;;4.20;2.00;;;0.40;99.90;;;-1.38;100.00;99200.66;5007401;27;100187;-62
2021/01/14 02:11:03;;;;;;;3.93;1.77;;;0.30;99.90;;;-1.33;100.00;99202.91;5006165;27;101481;-63
2021/01/14 02:13:40;;;;;;;3.27;1.60;;;0.40;99.90;;;-1.34;100.00;99201.25;4987909;27;101672;-63
2021/01/14 02:16:07;;;;;;;3.27;1.60;;;0.30;99.90;;;-1.34;100.00;99196.00;5007210;27;100125;-63
2021/01/14 02:18:34;;;;;;;1.40;1.30;;;0.40;99.90;;;-1.36;100.00;99197.91;5024813;27;100012;-63
2021/01/14 02:21:04;;;;;;;3.97;1.50;;;0.50;99.90;;;-1.47;100.00;99210.00;5006511;27;101804;-63
2021/01/14 02:23:41;;;;;;;1.70;1.57;;;0.50;99.90;;;-1.63;100.00;99208.56;5027193;27;100349;-63
2021/01/14 02:26:15;;;;;;;4.13;1.70;;;0.40;99.90;;;-1.74;100.00;99200.63;5025911;27;100028;-65
2021/01/14 02:28:45;;;;;;;2.20;1.73;;;0.50;99.90;;;-1.79;100.00;99210.59;5027685;27;100465;-64
2021/01/14 02:31:12;;;;;;;5.90;1.97;;;0.30;99.90;;;-1.84;100.00;99206.50;5025640;27;101704;-63
2021/01/14 02:33:39;;;;;;;3.30;1.90;;;0.20;99.90;;;-1.87;100.00;99206.72;5026016;27;101269;-65
2021/01/14 02:36:06;;;;;;;4.43;2.37;;;0.30;99.90;;;-1.87;100.00;99211.13;5007961;27;100685;-65
2021/01/14 02:38:34;;;;;;;4.00;2.13;;;0.30;99.90;;;-1.87;100.00;99213.75;5026697;27;100515;-64
2021/01/14 02:41:00;;;;;;;3.23;1.80;;;0.20;99.90;;;-1.90;100.00;99203.47;5025760;27;100763;-64
2021/01/14 02:43:27;;;;;;;3.80;2.17;;;0.20;99.90;;;-1.89;100.00;99213.84;5026325;27;101297;-64
2021/01/14 02:45:54;;;;;;;3.33;2.07;;;1.30;99.90;;;-1.88;100.00;99210.28;5027272;27;100345;-65
2021/01/14 02:48:30;;;;;;;4.10;2.50;;;0.30;99.90;;;-1.91;100.00;99202.63;5027804;27;100007;-66
2021/01/14 02:51:03;;;;;;;5.27;2.40;;;0.20;99.90;;;-1.89;100.00;99197.28;5025976;27;100700;-65
2021/01/14 02:53:31;;;;;;;3.33;2.10;;;0.10;99.90;;;-1.89;100.00;99205.16;5026277;27;100340;-64
2021/01/14 02:55:59;;;;;;;2.13;1.77;;;0.20;99.90;;;-1.89;100.00;99208.59;5026128;27;100333;-65
2021/01/14 02:58:28;;;;;;;3.83;2.60;;;0.20;99.90;;;-1.86;100.00;99203.16;5025935;27;99965;-65
2021/01/14 03:00:55;;;;;;;2.63;2.20;;;0.10;99.90;;;-1.90;100.00;99198.22;5025048;27;101046;-65
2021/01/14 03:03:22;;;;;;;5.07;2.40;;;0.10;99.90;;;-1.94;100.00;99189.72;5026575;27;100415;-65
2021/01/14 03:05:48;;;;;;;4.67;2.27;;;0.10;99.90;;;-1.97;100.00;99204.81;5025981;27;99930;-64
2021/01/14 03:08:15;;;;;;;2.97;2.53;;;0.10;99.90;;;-1.98;100.00;99205.78;5026797;27;100185;-65
2021/01/14 03:10:43;;;;;;;2.90;2.60;;;-0.10;99.90;;;-1.99;100.00;99201.50;5025630;27;101785;-63
2021/01/14 03:13:09;;;;;;;5.73;2.60;;;0.00;99.90;;;-1.98;100.00;99211.03;5026192;27;101106;-65
2021/01/14 03:15:37;;;;;;;3.20;2.47;;;0.20;99.90;;;-1.98;100.00;99214.47;5026622;27;100377;-65
2021/01/14 03:18:03;;;;;;;4.13;2.47;;;0.20;99.90;;;-1.99;100.00;99204.94;5026851;27;100160;-64
2021/01/14 03:20:30;;;;;;;4.30;2.70;;;0.00;99.90;;;-1.96;100.00;99201.25;5025143;27;101690;-64
2021/01/14 03:22:57;;;;;;;4.07;2.40;;;1.10;99.90;;;-1.93;100.00;99201.88;5026573;27;100755;-64
2021/01/14 03:25:24;;;;;;;2.93;2.13;;;0.00;99.90;;;-1.92;100.00;99211.44;5007293;27;100239;-65
2021/01/14 03:27:50;;;;;;;3.17;2.20;;;0.20;99.90;;;-1.86;100.00;99218.06;5026550;27;100074;-64
2021/01/14 03:30:19;;;;;;;2.30;2.10;;;0.10;99.90;;;-1.86;100.00;99226.75;5025980;27;101687;-65
2021/01/14 03:32:47;;;;;;;4.27;2.17;;;0.00;99.90;;;-1.84;100.00;99231.88;5026135;27;101965;-65
2021/01/14 03:35:22;;;;;;;2.70;2.27;;;0.20;99.90;;;-1.80;100.00;99233.34;5025578;27;100213;-64
2021/01/14 03:37:49;;;;;;;2.87;2.40;;;0.10;99.90;;;-1.82;100.00;99232.59;5025586;27;100082;-66
2021/01/14 03:40:16;;;;;;;2.90;2.00;;;0.10;99.90;;;-1.80;100.00;99238.59;5024741;27;100752;-64
2021/01/14 03:42:43;;;;;;;2.83;2.30;;;0.10;99.90;;;-1.77;100.00;99240.16;5025621;27;100598;-64
2021/01/14 03:45:10;;;;;;;5.43;2.77;;;0.20;99.90;;;-1.74;100.00;99243.44;5025070;27;100449;-64
2021/01/14 03:47:37;;;;;;;2.00;1.80;;;0.20;99.90;;;-1.72;100.00;99241.50;5025374;27;100300;-64
2021/01/14 03:50:06;;;;;;;2.77;2.53;;;0.10;99.90;;;-1.69;100.00;99243.09;5025552;27;100941;-64
2021/01/14 03:52:32;;;;;;;2.47;2.23;;;0.20;99.90;;;-1.65;100.00;99247.19;5025521;27;100815;-64
2021/01/14 03:54:59;;;;;;;2.53;1.93;;;0.20;99.90;;;-1.65;100.00;99253.28;5025237;27;100085;-64
2021/01/14 03:57:25;;;;;;;4.20;2.10;;;0.20;99.90;;;-1.61;100.00;99261.78;5007228;27;100230;-65
2021/01/14 03:59:51;;;;;;;2.40;2.00;;;0.30;99.90;;;-1.63;100.00;99264.50;5024724;27;100516;-64
2021/01/14 04:02:18;;;;;;;3.87;2.50;;;0.20;99.90;;;-1.61;100.00;99267.03;5026026;27;100843;-65
2021/01/14 04:04:44;;;;;;;2.00;1.80;;;0.40;99.90;;;-1.63;100.00;99256.63;5026077;27;100045;-65
2021/01/14 04:07:14;;;;;;;2.07;1.70;;;0.40;99.90;;;-1.61;100.00;99267.03;5025184;27;100203;-65
2021/01/14 04:09:42;;;;;;;4.80;2.17;;;0.30;99.90;;;-1.60;100.00;99280.00;5024603;27;100923;-64
2021/01/14 04:12:09;;;;;;;2.20;2.03;;;0.40;99.90;;;-1.60;100.00;99287.88;5025784;27;100614;-65
2021/01/14 04:14:36;;;;;;;2.93;2.10;;;0.30;99.90;;;-1.55;100.00;99305.94;5024148;27;100200;-65
2021/01/14 04:17:03;;;;;;;1.87;1.77;;;0.10;99.90;;;-1.53;100.00;99312.75;5025083;27;100246;-65
2021/01/14 04:19:29;;;;;;;3.30;2.10;;;0.40;99.90;;;-1.54;100.00;99307.59;5025097;27;101104;-65
2021/01/14 04:21:55;;;;;;;3.00;1.93;;;0.50;99.90;;;-1.51;100.00;99323.97;5024805;27;100543;-64
2021/01/14 04:24:23;;;;;;;2.63;1.80;;;0.50;99.90;;;-1.46;100.00;99331.53;5024533;27;100027;-66
2021/01/14 04:26:49;;;;;;;1.77;1.40;;;0.60;99.90;;;-1.47;100.00;99342.97;5024863;27;100580;-65
2021/01/14 04:29:16;;;;;;;1.33;1.23;;;0.60;99.90;;;-1.44;100.00;99350.63;5025574;27;100767;-65
2021/01/14 04:31:42;;;;;;;1.60;1.50;;;0.60;99.90;;;-1.41;100.00;99362.69;5025035;27;100043;-65
2021/01/14 04:34:08;;;;;;;1.40;1.30;;;0.60;99.90;;;-1.36;100.00;99368.47;5024363;27;100009;-64
2021/01/14 04:36:35;;;;;;;1.63;1.53;;;0.50;99.90;;;-1.32;100.00;99380.44;5024914;27;99987;-65
2021/01/14 04:39:01;;;;;;;1.10;1.10;;;0.60;99.90;;;-1.31;100.00;99392.59;5005085;27;101812;-65
2021/01/14 04:41:46;;;;;;;1.30;1.20;;;0.60;99.90;;;-1.26;100.00;99403.66;5024246;27;101167;-66
2021/01/14 04:44:12;;;;;;;1.40;1.30;;;0.60;99.90;;;-1.26;100.00;99414.97;5025129;27;100181;-64
2021/01/14 04:46:40;;;;;;;1.20;1.10;;;0.70;99.90;;;-1.22;100.00;99423.47;5024351;27;100103;-64
2021/01/14 04:49:07;;;;;;;1.83;1.47;;;0.80;99.90;;;-1.22;100.00;99426.09;5024192;27;100841;-65
2021/01/14 04:51:34;;;;;;;2.23;1.23;;;0.80;99.90;;;-1.23;100.00;99442.78;5024973;27;100346;-64
2021/01/14 04:54:03;;;;;;;1.77;1.67;;;0.80;99.90;;;-1.22;100.00;99450.56;5025256;27;100296;-65
2021/01/14 04:56:35;;;;;;;1.50;1.40;;;0.70;99.90;;;-1.19;100.00;99449.50;5024862;27;100085;-64
2021/01/14 04:59:04;;;;;;;2.77;1.67;;;0.80;99.90;;;-1.17;100.00;99472.09;5023834;27;101189;-64
2021/01/14 05:01:38;;;;;;;2.03;1.73;;;0.70;99.90;;;-1.15;100.00;99475.47;5024406;27;100650;-66
2021/01/14 05:04:05;;;;;;;2.00;1.80;;;0.80;99.90;;;-1.13;100.00;99483.25;5024945;27;100153;-66
2021/01/14 05:06:36;;;;;;;1.93;1.83;;;0.70;99.90;;;-1.13;100.00;99494.56;5024343;27;100172;-65
2021/01/14 05:09:05;;;;;;;2.53;2.10;;;0.70;99.90;;;-1.11;100.00;99502.31;5024446;27;100872;-65
2021/01/14 05:11:45;;;;;;;2.60;2.00;;;0.80;99.90;;;-1.10;100.00;99515.34;5024536;27;101064;-64
2021/01/14 05:14:11;;;;;;;6.03;5.43;;;0.50;99.90;;;-1.12;100.00;99524.31;5025055;27;100163;-66
2021/01/14 05:16:38;;;;;;;2.80;2.60;;;1.00;99.90;;;-1.10;100.00;99535.50;5025201;27;100197;-65
2021/01/14 05:19:04;;;;;;;2.60;2.40;;;0.90;99.90;;;-1.11;100.00;99545.16;5024454;27;100931;-65
2021/01/14 05:21:34;;;;;;;2.67;2.47;;;0.90;99.90;;;-1.08;100.00;99552.00;5024116;27;100818;-65
2021/01/14 05:24:09;;;;;;;1.50;1.40;;;0.80;99.90;;;-1.05;100.00;99557.06;5024340;27;100127;-65
2021/01/14 05:26:35;;;;;;;2.23;2.00;;;0.90;99.90;;;-1.06;100.00;99567.66;5027719;27;100165;-63
2021/01/14 05:29:15;;;;;;;1.70;1.60;;;0.90;99.90;;;-1.03;100.00;99570.94;5027807;27;100874;-63
2021/01/14 05:31:43;;;;;;;2.40;1.83;;;0.80;99.90;;;-1.04;100.00;99578.91;5027235;27;100706;-63
2021/01/14 05:34:09;;;;;;;2.53;2.17;;;0.90;99.90;;;-1.04;100.00;99581.53;5027615;27;100388;-64
2021/01/14 05:36:56;;;;;;;2.10;2.00;;;1.00;99.90;;;-1.03;100.00;99593.72;5027029;27;100017;-64
2021/01/14 05:39:23;;;;;;;2.30;2.10;;;0.00;99.90;;;-1.03;100.00;99601.59;5027376;27;101021;-64
2021/01/14 05:41:51;;;;;;;2.90;1.80;;;0.90;99.90;;;-1.03;100.00;99606.84;5026956;27;100483;-63
2021/01/14 05:44:19;;;;;;;3.13;2.83;;;0.90;99.90;;;-1.03;100.00;99614.72;5028594;27;100473;-63
2021/01/14 05:46:45;;;;;;;2.23;2.03;;;1.90;99.90;;;-1.04;100.00;99618.28;5027920;27;100214;-63
2021/01/14 05:49:13;;;;;;;2.33;2.13;;;0.90;99.90;;;-1.03;100.00;99630.47;5027267;27;101203;-63
2021/01/14 05:51:40;;;;;;;2.60;2.40;;;0.40;99.90;;;-1.03;100.00;99630.47;5026536;27;100730;-64
2021/01/14 05:54:08;;;;;;;2.73;2.53;;;0.90;99.90;;;-1.00;100.00;99646.88;5027645;27;100129;-64
2021/01/14 05:56:37;;;;;;;2.93;2.53;;;0.80;99.90;;;-1.00;100.00;99652.13;5026997;27;100304;-66
2021/01/14 05:59:06;;;;;;;3.03;2.73;;;0.90;99.90;;;-0.98;100.00;99663.34;5027188;27;100184;-64
2021/01/14 06:01:35;;;;;;;3.60;3.20;;;1.00;99.90;;;-0.99;100.00;99661.66;5026009;27;101338;-66
2021/01/14 06:04:15;;;;;;;3.80;2.70;;;1.00;99.90;;;-0.98;100.00;99670.38;5027793;27;100135;-65
2021/01/14 06:06:44;;;;;;;4.10;3.30;;;1.00;99.90;;;-0.98;100.00;99683.53;5022860;27;100480;-66
2021/01/14 06:09:12;;;;;;;3.80;3.07;;;0.90;99.90;;;-0.98;100.00;99680.91;5027058;27;100496;-64
2021/01/14 06:11:39;;;;;;;5.53;3.47;;;1.10;99.90;;;-0.97;100.00;99686.06;5026775;27;100293;-66
2021/01/14 06:14:06;;;;;;;5.80;3.90;;;0.90;99.90;;;-0.99;100.00;99693.19;5027049;27;100165;-66
2021/01/14 06:16:49;;;;;;;5.30;4.13;;;0.90;99.90;;;-0.98;100.00;99696.66;5027148;27;100337;-69
2021/01/14 06:19:16;;;;;;;6.77;4.67;;;1.00;99.90;;;-1.00;100.00;99709.91;5026783;27;101073;-64
2021/01/14 06:21:47;;;;;;;6.33;4.70;;;1.00;99.90;;;-0.98;100.00;99715.03;5026495;27;100649;-64
2021/01/14 06:24:24;;;;;;;6.57;4.83;;;1.00;99.90;;;-0.97;100.00;99727.22;5026594;27;100119;-66
2021/01/14 06:26:53;;;;;;;6.93;5.50;;;1.00;99.90;;;-0.98;100.00;99736.03;5026263;27;100367;-67
2021/01/14 06:29:24;;;;;;;8.10;5.73;;;0.90;99.90;;;-0.98;100.00;99741.28;5026340;27;100088;-66
2021/01/14 06:31:52;;;;;;;8.83;6.33;;;0.90;99.90;;;-0.98;100.00;99757.03;5026057;27;100445;-65
2021/01/14 06:34:21;;;;;;;11.03;6.23;;;1.20;99.90;;;-0.98;100.00;99767.56;5026677;27;100043;-67
2021/01/14 06:36:49;;;;;;;10.17;6.30;;;1.00;99.90;;;-0.97;100.00;99769.25;5025344;27;99957;-65
2021/01/14 06:39:18;;;;;;;8.50;6.40;;;1.00;99.90;;;-0.99;100.00;99790.34;5025756;27;100777;-66
2021/01/14 06:41:47;;;;;;;10.77;7.07;;;1.70;99.90;;;-0.97;100.00;99790.25;5026234;27;100606;-66
2021/01/14 06:44:15;;;;;;;12.23;7.07;;;1.00;99.90;;;-0.98;100.00;99802.53;5026578;27;100469;-66
2021/01/14 06:47:03;;;;;;;9.40;6.30;;;0.30;99.90;;;-0.96;100.00;99807.69;5026658;27;100496;-65
2021/01/14 06:49:32;;;;;;;11.73;7.40;;;1.00;99.90;;;-0.94;100.00;99808.44;5026679;27;100887;-66
2021/01/14 06:52:02;;;;;;;11.07;6.77;;;1.40;99.90;;;-0.95;100.00;99817.25;5025585;27;101281;-66
2021/01/14 06:54:30;;;;;;;11.27;6.50;;;1.10;99.90;;;-0.96;100.00;99824.28;5025886;27;100230;-66
2021/01/14 06:57:02;;;;;;;11.93;7.13;;;1.20;99.90;;;-0.95;100.00;99828.59;5027007;27;100162;-65
2021/01/14 06:59:28;;;;;;;10.50;6.20;;;1.00;99.90;;;-0.97;100.00;99843.63;5026615;27;100781;-65
2021/01/14 07:02:44;;;;;;;10.33;7.30;;;1.10;99.90;;;-0.95;100.00;99854.03;5025952;27;101215;-64
2021/01/14 07:05:23;;;;;;;8.30;6.30;;;1.10;99.90;;;-0.95;100.00;99859.28;5026265;27;100099;-65
2021/01/14 07:08:01;;;;;;;10.93;6.40;;;1.20;99.90;;;-0.95;100.00;99864.53;5026316;27;100175;-66
2021/01/14 07:10:32;;;;;;;9.97;6.37;;;1.00;99.90;;;-0.95;100.00;99862.75;5026052;27;100145;-66
2021/01/14 07:13:04;;;;;;;10.47;6.83;;;1.00;99.90;;;-0.97;100.00;99871.66;5025354;27;101096;-64
2021/01/14 07:15:37;;;;;;;10.10;6.80;;;1.10;99.90;;;-0.97;100.00;99875.13;5026148;27;100136;-65
2021/01/14 07:18:09;;;;;;;15.70;6.83;;;1.90;99.90;;;-0.97;100.00;99887.41;5026600;27;99888;-66
2021/01/14 07:20:37;;;;;;;10.03;6.90;;;1.00;99.90;;;-0.96;100.00;99896.97;5026124;27;101183;-66
2021/01/14 07:23:06;;;;;;;13.73;7.70;;;1.10;99.90;;;-0.98;100.00;99898.84;5007505;27;103163;-64
2021/01/14 07:25:33;;;;;;;12.57;7.37;;;1.00;99.90;;;-1.00;100.00;99911.25;5026787;27;99940;-66
2021/01/14 07:27:59;;;;;;;11.03;7.33;;;1.20;99.90;;;-1.02;100.00;99923.63;5027158;27;100152;-65
2021/01/14 07:30:26;;;;;;;14.90;7.97;;;1.10;99.90;;;-1.04;100.00;99930.75;5006723;27;103379;-66
2021/01/14 07:33:04;;;;;;;13.20;7.33;;;1.10;99.90;;;-1.02;100.00;99935.00;5025162;27;101235;-65
2021/01/14 07:35:36;;;;;;;11.50;7.53;;;1.10;99.90;;;-1.02;100.00;99955.16;5025941;27;100140;-62
2021/01/14 07:38:04;;;;;;;12.57;8.30;;;1.00;99.90;;;-1.05;100.00;99945.66;5026289;27;100169;-65
2021/01/14 07:40:33;;;;;;;12.57;7.57;;;1.00;99.90;;;-1.06;100.00;99959.72;5025418;27;101729;-64
2021/01/14 07:43:02;;;;;;;15.20;7.77;;;1.00;99.90;;;-1.05;100.00;99961.41;5026086;27;101312;-64
2021/01/14 07:45:29;;;;;;;11.77;7.00;;;1.10;99.90;;;-1.08;100.00;99964.22;5026639;27;100072;-65
2021/01/14 07:47:56;;;;;;;13.77;8.50;;;1.10;99.90;;;-1.05;100.00;99966.69;5026435;27;100069;-65
2021/01/14 07:50:25;;;;;;;13.67;8.30;;;1.10;99.90;;;-1.08;100.00;99964.22;5025339;27;100925;-65
2021/01/14 07:52:55;;;;;;;13.60;7.97;;;1.00;99.90;;;-1.03;100.00;99983.19;5025666;27;101054;-65
2021/01/14 07:55:27;;;;;;;15.33;9.03;;;1.00;99.90;;;-1.01;100.00;99980.47;5025579;27;100182;-66
2021/01/14 07:58:04;;;;;;;13.83;8.53;;;1.20;99.90;;;-1.08;100.00;99986.06;5026422;27;100168;-65
2021/01/14 08:00:32;;;;;;;15.80;9.10;;;1.10;99.90;;;-1.04;100.00;99992.00;5024411;27;101847;-66
2021/01/14 08:03:12;;;;;;;13.80;8.20;;;1.00;99.90;;;-1.02;100.00;100000.63;5025085;27;100499;-67
2021/01/14 08:05:56;;;;;;;20.00;10.40;;;0.90;99.90;;;-0.98;100.00;99998.66;5024895;27;100225;-66
2021/01/14 08:08:32;;;;;;;16.10;9.33;;;1.20;99.90;;;-0.96;100.00;100002.88;5025883;27;100379;-66
2021/01/14 08:11:19;;;;;;;15.27;9.23;;;1.10;99.90;;;-0.98;100.00;100014.41;5025159;27;100796;-67
2021/01/14 08:14:04;;;;;;;17.70;10.20;;;1.20;99.90;;;-0.92;100.00;100020.16;5025319;27;100299;-65
2021/01/14 08:16:33;;;;;;;16.77;9.80;;;1.10;99.90;;;-0.89;100.00;100027.84;5024893;27;100029;-67
2021/01/14 08:19:30;;;;;;;18.77;10.57;;;1.00;99.90;;;-0.83;100.00;100035.34;5025076;27;100103;-65
2021/01/14 08:22:10;;;;;;;17.47;11.03;;;1.10;99.90;;;-0.79;100.00;100054.41;5023588;27;100237;-65
2021/01/14 08:24:49;;;;;;;20.47;12.13;;;1.20;99.90;;;-0.77;100.00;100056.00;5024731;27;100159;-72
2021/01/14 08:27:23;;;;;;;21.97;13.37;;;1.20;99.90;;;-0.76;100.00;100068.22;5025308;27;100314;-72
2021/01/14 08:29:58;;;;;;;21.37;12.57;;;1.20;99.90;;;-0.76;100.00;100068.22;5024887;27;100267;-71
2021/01/14 08:32:41;;;;;;;20.30;12.50;;;1.20;99.90;;;-0.71;100.00;100086.31;5024927;27;100856;-71
2021/01/14 08:35:17;;;;;;;22.83;12.53;;;1.20;99.90;;;-0.70;100.00;100095.88;5025112;27;100359;-67
2021/01/14 08:37:49;;;;;;;20.30;12.20;;;1.30;99.90;;;-0.67;100.00;100102.75;5025127;27;100214;-66
2021/01/14 08:40:19;;;;;;;19.03;12.00;;;2.00;99.90;;;-0.66;100.00;100107.06;5024772;27;100151;-65
2021/01/14 08:42:47;;;;;;;19.93;12.20;;;1.30;99.90;;;-0.62;100.00;100109.44;5023899;27;100905;-68
2021/01/14 08:45:18;;;;;;;21.20;12.67;;;1.40;99.90;;;-0.61;100.00;100115.50;5024861;27;100471;-67
2021/01/14 08:48:01;;;;;;;20.77;12.33;;;1.30;99.90;;;-0.60;100.00;100119.81;5024308;27;99979;-68
2021/01/14 08:50:53;;;;;;;18.77;12.37;;;1.40;99.90;;;-0.58;100.00;100124.06;5025008;27;99960;-67
2021/01/14 08:53:27;;;;;;;18.87;11.87;;;1.40;99.90;;;-0.54;100.00;100136.09;5024999;27;100977;-66
2021/01/14 08:55:56;;;;;;;20.60;11.87;;;1.50;99.90;;;-0.53;100.00;100142.19;5024783;27;100570;-65
2021/01/14 08:58:42;;;;;;;19.40;12.70;;;1.50;99.90;;;-0.52;100.00;100151.75;5024320;27;100050;-66
2021/01/14 09:01:18;;;;;;;19.27;11.90;;;1.50;99.90;;;-0.52;100.00;100157.88;5028443;27;100595;-65
2021/01/14 09:03:46;;;;;;;21.87;12.57;;;1.50;99.90;;;-0.54;100.00;100159.75;5028066;27;100577;-65
2021/01/14 09:06:13;;;;;;;19.07;12.47;;;1.50;99.90;;;-0.52;100.00;100160.50;5028055;27;100406;-64
2021/01/14 09:08:39;;;;;;;19.70;12.67;;;1.60;99.90;;;-0.49;100.00;100168.19;5028776;27;100092;-65
2021/01/14 09:11:07;;;;;;;21.63;11.30;;;1.40;99.90;;;-0.46;100.00;100177.66;5027341;27;100168;-66
2021/01/14 09:13:34;;;;;;;17.30;11.53;;;1.50;99.90;;;-0.47;100.00;100176.81;5027351;27;101275;-66
2021/01/14 09:16:09;;;;;;;16.97;11.17;;;1.60;99.90;;;-0.44;100.00;100189.78;5027552;27;100307;-66
2021/01/14 09:18:38;;;;;;;18.83;12.47;;;1.50;99.90;;;-0.43;100.00;100203.78;5032335;27;99947;-67
2021/01/14 09:21:05;;;;;;;20.30;12.50;;;1.60;99.90;;;-0.41;100.00;100204.53;5028789;27;100279;-67
2021/01/14 09:23:34;;;;;;;19.83;11.13;;;1.60;99.90;;;-0.41;100.00;100208.03;5027698;27;101152;-68
2021/01/14 09:26:03;;;;;;;17.40;10.90;;;1.60;99.90;;;-0.37;100.00;100211.28;5027393;27;100523;-67
2021/01/14 09:28:32;;;;;;;19.43;11.17;;;1.60;99.90;;;-0.38;100.00;100218.34;5028289;27;100127;-67
2021/01/14 09:31:02;;;;;;;15.77;11.63;;;1.70;99.90;;;-0.36;100.00;100218.25;5028135;27;100276;-66
2021/01/14 09:33:31;;;;;;;17.43;11.00;;;2.80;99.90;;;-0.34;100.00;100234.78;5008785;27;103796;-68
2021/01/14 09:36:05;;;;;;;17.83;10.57;;;1.70;99.90;;;-0.33;100.00;100239.09;5026779;27;100495;-68
2021/01/14 09:38:39;;;;;;;16.73;10.50;;;2.70;99.90;;;-0.33;100.00;100236.47;5027152;27;100046;-68
2021/01/14 09:41:06;;;;;;;16.27;10.43;;;1.70;99.90;;;-0.31;100.00;100250.38;5027618;27;100942;-67
2021/01/14 09:43:38;;;;;;;15.97;9.83;;;1.80;99.90;;;-0.31;100.00;100247.75;5028099;27;101103;-67
2021/01/14 09:46:04;;;;;;;16.23;10.33;;;1.80;99.90;;;-0.28;100.00;100254.63;5027149;27;101742;-66
2021/01/14 09:48:33;;;;;;;19.73;10.83;;;1.80;99.90;;;-0.31;100.00;100265.31;5027555;27;100290;-69
2021/01/14 09:51:07;;;;;;;17.23;10.50;;;1.70;99.90;;;-0.27;100.00;100267.69;5027759;27;100300;-69
2021/01/14 09:53:33;;;;;;;18.23;11.20;;;2.80;99.90;;;-0.27;100.00;100272.09;5017847;27;100630;-69
2021/01/14 09:56:03;;;;;;;15.17;10.70;;;1.90;99.90;;;-0.24;100.00;100275.38;5027607;27;100884;-71
2021/01/14 09:58:31;;;;;;;15.60;10.20;;;2.30;99.90;;;-0.22;100.00;100278.75;5028905;27;100059;-71
2021/01/14 10:01:01;;;;;;;15.23;10.40;;;1.80;99.90;;;-0.19;100.00;100277.72;5027791;27;100149;-73
2021/01/14 10:03:31;;;;;;;16.77;10.93;;;1.90;99.90;;;-0.20;100.00;100276.88;5026296;27;101229;-71
2021/01/14 10:06:00;;;;;;;13.90;10.10;;;1.70;99.90;;;-0.15;100.00;100289.78;5027280;27;99953;-73
2021/01/14 10:08:29;;;;;;;17.93;12.27;;;2.00;99.90;;;-0.13;100.00;100293.16;5026904;27;100289;-73
2021/01/14 10:10:57;;;;;;;16.40;11.43;;;2.00;99.90;;;-0.18;100.00;100301.31;5026718;27;100110;-73
2021/01/14 10:13:26;;;;;;;15.00;9.70;;;2.10;99.90;;;-0.18;100.00;100305.72;5027137;27;101061;-72
2021/01/14 10:15:52;;;;;;;21.37;13.70;;;2.00;99.90;;;-0.16;100.00;100312.59;5007873;27;101233;-70
2021/01/14 10:18:27;;;;;;;17.77;10.77;;;2.00;99.90;;;-0.11;100.00;100309.69;5028219;27;100177;-69
2021/01/14 10:21:00;;;;;;;15.47;10.93;;;1.90;99.90;;;-0.12;100.00;100316.72;5028130;27;100642;-68